createdAt,value
2018-03-06T00:01:03.145Z,995.17
2018-03-06T00:02:11.964Z,995.18
2018-03-06T00:03:20.793Z,995.14
2018-03-06T00:04:29.628Z,995.17
2018-03-06T00:05:38.807Z,995.15
2018-03-06T00:06:47.632Z,995.18
2018-03-06T00:07:56.461Z,995.2
2018-03-06T00:09:05.286Z,995.14
2018-03-06T00:10:14.114Z,995.13
2018-03-06T00:11:22.990Z,995.12
2018-03-06T00:12:31.817Z,995.14
2018-03-06T00:13:40.646Z,995.1
2018-03-06T00:14:49.475Z,995.09
2018-03-06T00:15:58.299Z,995.08
2018-03-06T00:17:07.126Z,995.05
2018-03-06T00:18:15.952Z,995.09
2018-03-06T00:19:24.783Z,995.05
2018-03-06T00:20:33.611Z,995.03
2018-03-06T00:21:42.437Z,995.03
2018-03-06T00:22:51.649Z,995.05
2018-03-06T00:24:00.478Z,995.05
2018-03-06T00:25:09.594Z,994.99
2018-03-06T00:26:18.423Z,995.03
2018-03-06T00:27:27.251Z,995
2018-03-06T00:28:36.230Z,994.98
2018-03-06T00:29:45.059Z,994.95
2018-03-06T00:30:53.883Z,994.92
2018-03-06T00:32:02.993Z,994.97
2018-03-06T00:33:11.821Z,994.95
2018-03-06T00:34:20.747Z,994.94
2018-03-06T00:35:29.575Z,994.93
2018-03-06T00:36:38.402Z,994.92
2018-03-06T00:37:47.229Z,994.9
2018-03-06T00:38:56.059Z,994.88
2018-03-06T00:40:04.888Z,994.88
2018-03-06T00:41:13.711Z,994.81
2018-03-06T00:42:22.538Z,994.78
2018-03-06T00:43:31.369Z,994.8
2018-03-06T00:44:40.196Z,994.8
2018-03-06T00:45:49.073Z,994.74
2018-03-06T00:46:57.902Z,994.77
2018-03-06T00:48:06.729Z,994.71
2018-03-06T00:49:15.556Z,994.7
2018-03-06T00:50:24.402Z,994.68
2018-03-06T00:51:33.313Z,994.7
2018-03-06T00:52:42.143Z,994.71
2018-03-06T00:53:50.970Z,994.66
2018-03-06T00:54:59.847Z,994.7
2018-03-06T00:56:08.974Z,994.7
2018-03-06T00:57:17.948Z,994.66
2018-03-06T00:58:26.783Z,994.71
2018-03-06T00:59:36.743Z,994.69
2018-03-06T01:00:45.571Z,994.63
2018-03-06T01:01:54.399Z,994.68
2018-03-06T01:03:03.225Z,994.64
2018-03-06T01:04:12.054Z,994.62
2018-03-06T01:05:20.881Z,994.61
2018-03-06T01:06:29.707Z,994.57
2018-03-06T01:07:38.855Z,994.56
2018-03-06T01:08:47.682Z,994.53
2018-03-06T01:09:56.819Z,994.53
2018-03-06T01:11:05.653Z,994.5
2018-03-06T01:12:14.777Z,994.46
2018-03-06T01:13:23.605Z,994.49
2018-03-06T01:14:32.433Z,994.52
2018-03-06T01:15:41.259Z,994.58
2018-03-06T01:16:50.085Z,994.57
2018-03-06T01:17:58.912Z,994.62
2018-03-06T01:19:08.049Z,994.64
2018-03-06T01:20:16.978Z,994.61
2018-03-06T01:21:26.177Z,994.56
2018-03-06T01:22:35.005Z,994.6
2018-03-06T01:23:43.834Z,994.55
2018-03-06T01:24:52.970Z,994.52
2018-03-06T01:26:01.844Z,994.51
2018-03-06T01:27:10.672Z,994.48
2018-03-06T01:28:19.498Z,994.49
2018-03-06T01:29:28.324Z,994.48
2018-03-06T01:30:37.152Z,994.46
2018-03-06T01:31:46.028Z,994.48
2018-03-06T01:32:54.856Z,994.48
2018-03-06T01:34:03.684Z,994.5
2018-03-06T01:35:12.513Z,994.46
2018-03-06T01:36:21.635Z,994.44
2018-03-06T01:37:30.564Z,994.45
2018-03-06T01:38:39.390Z,994.44
2018-03-06T01:39:48.214Z,994.42
2018-03-06T01:40:57.041Z,994.39
2018-03-06T01:42:05.872Z,994.44
2018-03-06T01:43:14.702Z,994.42
2018-03-06T01:44:23.530Z,994.39
2018-03-06T01:45:32.356Z,994.36
2018-03-06T01:46:41.185Z,994.4
2018-03-06T01:47:50.010Z,994.37
2018-03-06T01:48:59.141Z,994.35
2018-03-06T01:50:07.966Z,994.34
2018-03-06T01:51:16.795Z,994.3
2018-03-06T01:52:25.918Z,994.27
2018-03-06T01:53:34.747Z,994.3
2018-03-06T01:54:43.724Z,994.29
2018-03-06T01:55:52.551Z,994.27
2018-03-06T01:57:01.377Z,994.28
2018-03-06T01:58:10.204Z,994.27
2018-03-06T01:59:19.032Z,994.27
2018-03-06T02:00:28.009Z,994.27
2018-03-06T02:01:36.886Z,994.23
2018-03-06T02:02:45.711Z,994.2
2018-03-06T02:03:54.540Z,994.18
2018-03-06T02:05:03.368Z,994.19
2018-03-06T02:06:12.243Z,994.16
2018-03-06T02:07:21.070Z,994.1
2018-03-06T02:08:29.899Z,994.09
2018-03-06T02:09:38.724Z,994.05
2018-03-06T02:10:47.562Z,994.06
2018-03-06T02:11:56.940Z,994.01
2018-03-06T02:13:05.767Z,993.99
2018-03-06T02:14:14.597Z,993.97
2018-03-06T02:15:24.463Z,993.9
2018-03-06T02:16:33.300Z,993.86
2018-03-06T02:17:42.127Z,993.86
2018-03-06T02:18:50.954Z,993.82
2018-03-06T02:19:59.784Z,993.8
2018-03-06T02:21:08.610Z,993.79
2018-03-06T02:22:17.438Z,993.81
2018-03-06T02:23:26.566Z,993.81
2018-03-06T02:24:35.392Z,993.76
2018-03-06T02:25:44.220Z,993.78
2018-03-06T02:26:53.052Z,993.76
2018-03-06T02:28:01.875Z,993.83
2018-03-06T02:29:10.703Z,993.85
2018-03-06T02:30:19.529Z,993.82
2018-03-06T02:31:28.642Z,993.81
2018-03-06T02:32:37.469Z,993.8
2018-03-06T02:33:46.302Z,993.82
2018-03-06T02:34:55.584Z,993.83
2018-03-06T02:36:04.412Z,993.79
2018-03-06T02:37:13.239Z,993.79
2018-03-06T02:38:22.067Z,993.75
2018-03-06T02:39:30.900Z,993.77
2018-03-06T02:40:39.774Z,993.74
2018-03-06T02:41:48.603Z,993.79
2018-03-06T02:42:57.430Z,993.81
2018-03-06T02:44:06.571Z,993.78
2018-03-06T02:45:15.399Z,993.81
2018-03-06T02:46:24.227Z,993.78
2018-03-06T02:47:33.054Z,993.81
2018-03-06T02:48:41.882Z,993.84
2018-03-06T02:49:50.711Z,993.85
2018-03-06T02:50:59.827Z,993.88
2018-03-06T02:52:08.804Z,993.85
2018-03-06T02:53:18.228Z,993.86
2018-03-06T02:54:27.057Z,993.85
2018-03-06T02:55:36.171Z,993.84
2018-03-06T02:56:44.995Z,993.87
2018-03-06T02:57:53.873Z,993.85
2018-03-06T02:59:02.704Z,993.88
2018-03-06T03:00:11.840Z,993.85
2018-03-06T03:01:20.661Z,993.86
2018-03-06T03:02:29.491Z,993.89
2018-03-06T03:03:38.468Z,993.86
2018-03-06T03:04:47.298Z,993.87
2018-03-06T03:05:56.121Z,993.89
2018-03-06T03:07:04.950Z,993.92
2018-03-06T03:08:13.777Z,993.9
2018-03-06T03:09:22.603Z,993.93
2018-03-06T03:10:31.431Z,993.94
2018-03-06T03:11:40.260Z,993.93
2018-03-06T03:12:49.087Z,993.95
2018-03-06T03:13:57.913Z,993.94
2018-03-06T03:15:06.941Z,993.95
2018-03-06T03:16:15.769Z,993.98
2018-03-06T03:17:26.730Z,993.95
2018-03-06T03:18:35.568Z,993.94
2018-03-06T03:19:44.390Z,993.91
2018-03-06T03:20:53.267Z,993.86
2018-03-06T03:22:02.407Z,993.89
2018-03-06T03:23:11.236Z,993.91
2018-03-06T03:24:20.071Z,993.89
2018-03-06T03:25:28.902Z,993.86
2018-03-06T03:26:37.734Z,993.87
2018-03-06T03:27:46.562Z,993.84
2018-03-06T03:28:55.389Z,993.83
2018-03-06T03:30:04.216Z,993.84
2018-03-06T03:31:13.046Z,993.81
2018-03-06T03:32:22.180Z,993.81
2018-03-06T03:33:31.007Z,993.85
2018-03-06T03:34:39.839Z,993.84
2018-03-06T03:35:50.168Z,993.79
2018-03-06T03:36:58.996Z,993.77
2018-03-06T03:38:08.131Z,993.74
2018-03-06T03:39:16.962Z,993.79
2018-03-06T03:40:25.794Z,993.8
2018-03-06T03:41:34.616Z,993.75
2018-03-06T03:42:43.443Z,993.79
2018-03-06T03:43:52.519Z,993.78
2018-03-06T03:45:01.350Z,993.8
2018-03-06T03:46:11.100Z,993.81
2018-03-06T03:47:19.932Z,993.78
2018-03-06T03:48:28.755Z,993.78
2018-03-06T03:49:37.834Z,993.73
2018-03-06T03:50:46.662Z,993.71
2018-03-06T03:51:55.488Z,993.7
2018-03-06T03:53:04.602Z,993.68
2018-03-06T03:54:13.427Z,993.68
2018-03-06T03:55:22.302Z,993.61
2018-03-06T03:56:31.128Z,993.63
2018-03-06T03:57:39.955Z,993.62
2018-03-06T03:58:48.781Z,993.59
2018-03-06T03:59:57.915Z,993.63
2018-03-06T04:01:06.993Z,993.62
2018-03-06T04:02:15.821Z,993.56
2018-03-06T04:03:24.649Z,993.6
2018-03-06T04:04:33.472Z,993.57
2018-03-06T04:05:42.299Z,993.58
2018-03-06T04:06:51.425Z,993.62
2018-03-06T04:08:00.253Z,993.61
2018-03-06T04:09:09.080Z,993.64
2018-03-06T04:10:17.907Z,993.65
2018-03-06T04:11:26.733Z,993.61
2018-03-06T04:12:35.609Z,993.6
2018-03-06T04:13:44.436Z,993.62
2018-03-06T04:14:53.260Z,993.58
2018-03-06T04:16:02.087Z,993.6
2018-03-06T04:17:10.913Z,993.62
2018-03-06T04:18:19.841Z,993.61
2018-03-06T04:19:28.666Z,993.62
2018-03-06T04:20:37.497Z,993.59
2018-03-06T04:21:46.322Z,993.6
2018-03-06T04:22:55.148Z,993.65
2018-03-06T04:24:04.376Z,993.65
2018-03-06T04:25:13.203Z,993.66
2018-03-06T04:26:22.028Z,993.66
2018-03-06T04:27:30.852Z,993.67
2018-03-06T04:28:39.678Z,993.71
2018-03-06T04:29:48.603Z,993.71
2018-03-06T04:30:58.589Z,993.69
2018-03-06T04:32:07.415Z,993.74
2018-03-06T04:33:16.241Z,993.67
2018-03-06T04:34:25.364Z,993.71
2018-03-06T04:35:34.190Z,993.7
2018-03-06T04:36:43.018Z,993.68
2018-03-06T04:37:51.847Z,993.72
2018-03-06T04:39:00.974Z,993.7
2018-03-06T04:40:09.799Z,993.71
2018-03-06T04:41:18.626Z,993.69
2018-03-06T04:42:27.454Z,993.7
2018-03-06T04:43:36.282Z,993.72
2018-03-06T04:44:45.401Z,993.68
2018-03-06T04:45:54.531Z,993.69
2018-03-06T04:47:03.357Z,993.68
2018-03-06T04:48:12.184Z,993.68
2018-03-06T04:49:21.009Z,993.66
2018-03-06T04:50:29.836Z,993.68
2018-03-06T04:51:38.660Z,993.61
2018-03-06T04:52:47.881Z,993.64
2018-03-06T04:53:56.707Z,993.65
2018-03-06T04:55:05.535Z,993.6
2018-03-06T04:56:14.362Z,993.6
2018-03-06T04:57:23.189Z,993.59
2018-03-06T04:58:32.014Z,993.57
2018-03-06T04:59:40.841Z,993.57
2018-03-06T05:00:49.667Z,993.53
2018-03-06T05:01:58.491Z,993.55
2018-03-06T05:03:07.318Z,993.53
2018-03-06T05:04:16.141Z,993.54
2018-03-06T05:05:24.970Z,993.48
2018-03-06T05:06:33.796Z,993.52
2018-03-06T05:07:42.621Z,993.53
2018-03-06T05:08:51.761Z,993.49
2018-03-06T05:10:02.034Z,993.49
2018-03-06T05:11:10.858Z,993.48
2018-03-06T05:12:19.684Z,993.46
2018-03-06T05:13:28.511Z,993.44
2018-03-06T05:14:37.354Z,993.47
2018-03-06T05:15:46.180Z,993.47
2018-03-06T05:16:55.318Z,993.48
2018-03-06T05:18:04.440Z,993.49
2018-03-06T05:19:13.266Z,993.52
2018-03-06T05:20:22.092Z,993.49
2018-03-06T05:21:31.221Z,993.51
2018-03-06T05:22:40.047Z,993.49
2018-03-06T05:23:49.183Z,993.49
2018-03-06T05:24:58.007Z,993.48
2018-03-06T05:26:06.833Z,993.46
2018-03-06T05:27:15.811Z,993.42
2018-03-06T05:28:24.637Z,993.41
2018-03-06T05:29:33.464Z,993.42
2018-03-06T05:30:42.588Z,993.38
2018-03-06T05:31:51.416Z,993.35
2018-03-06T05:33:00.392Z,993.42
2018-03-06T05:34:09.221Z,993.42
2018-03-06T05:35:18.048Z,993.41
2018-03-06T05:36:27.701Z,993.44
2018-03-06T05:37:36.528Z,993.37
2018-03-06T05:38:45.656Z,993.38
2018-03-06T05:39:54.481Z,993.36
2018-03-06T05:41:03.321Z,993.39
2018-03-06T05:42:12.229Z,993.37
2018-03-06T05:43:21.056Z,993.4
2018-03-06T05:44:29.880Z,993.4
2018-03-06T05:45:39.945Z,993.37
2018-03-06T05:46:48.771Z,993.36
2018-03-06T05:47:57.596Z,993.38
2018-03-06T05:49:06.521Z,993.42
2018-03-06T05:50:15.349Z,993.43
2018-03-06T05:51:25.264Z,993.35
2018-03-06T05:52:34.091Z,993.41
2018-03-06T05:53:42.932Z,993.33
2018-03-06T05:54:51.759Z,993.36
2018-03-06T05:56:00.585Z,993.37
2018-03-06T05:57:09.410Z,993.35
2018-03-06T05:58:18.525Z,993.35
2018-03-06T05:59:27.350Z,993.35
2018-03-06T06:00:36.176Z,993.34
2018-03-06T06:01:45.002Z,993.33
2018-03-06T06:02:53.828Z,993.34
2018-03-06T06:04:02.653Z,993.34
2018-03-06T06:05:11.481Z,993.37
2018-03-06T06:06:20.309Z,993.43
2018-03-06T06:07:29.138Z,993.38
2018-03-06T06:08:37.963Z,993.42
2018-03-06T06:09:47.041Z,993.43
2018-03-06T06:10:55.871Z,993.44
2018-03-06T06:12:04.700Z,993.49
2018-03-06T06:13:13.526Z,993.48
2018-03-06T06:14:22.353Z,993.5
2018-03-06T06:15:31.429Z,993.47
2018-03-06T06:16:40.255Z,993.53
2018-03-06T06:17:49.078Z,993.5
2018-03-06T06:18:57.905Z,993.51
2018-03-06T06:20:07.013Z,993.58
2018-03-06T06:21:15.849Z,993.57
2018-03-06T06:22:24.676Z,993.58
2018-03-06T06:23:33.502Z,993.59
2018-03-06T06:24:42.329Z,993.63
2018-03-06T06:25:51.164Z,993.56
2018-03-06T06:26:59.991Z,993.59
2018-03-06T06:28:08.822Z,993.57
2018-03-06T06:29:17.922Z,993.59
2018-03-06T06:30:26.751Z,993.57
2018-03-06T06:31:35.580Z,993.59
2018-03-06T06:32:44.407Z,993.6
2018-03-06T06:33:53.235Z,993.63
2018-03-06T06:35:02.063Z,993.54
2018-03-06T06:36:10.887Z,993.58
2018-03-06T06:37:19.715Z,993.6
2018-03-06T06:38:28.539Z,993.63
2018-03-06T06:39:37.444Z,993.66
2018-03-06T06:40:46.309Z,993.65
2018-03-06T06:41:55.141Z,993.67
2018-03-06T06:43:03.969Z,993.67
2018-03-06T06:44:12.893Z,993.69
2018-03-06T06:45:22.001Z,993.63
2018-03-06T06:46:30.830Z,993.65
2018-03-06T06:47:39.658Z,993.58
2018-03-06T06:48:48.484Z,993.64
2018-03-06T06:49:57.411Z,993.61
2018-03-06T06:51:06.237Z,993.59
2018-03-06T06:52:15.064Z,993.64
2018-03-06T06:53:23.891Z,993.61
2018-03-06T06:54:32.775Z,993.59
2018-03-06T06:55:41.750Z,993.6
2018-03-06T06:56:50.580Z,993.61
2018-03-06T06:57:59.406Z,993.58
2018-03-06T06:59:08.234Z,993.64
2018-03-06T07:00:17.353Z,993.64
2018-03-06T07:01:26.480Z,993.69
2018-03-06T07:02:35.583Z,993.73
2018-03-06T07:03:44.411Z,993.75
2018-03-06T07:04:53.235Z,993.72
2018-03-06T07:06:02.066Z,993.79
2018-03-06T07:07:11.443Z,993.78
2018-03-06T07:08:20.270Z,993.73
2018-03-06T07:09:29.096Z,993.74
2018-03-06T07:10:37.922Z,993.73
2018-03-06T07:11:46.748Z,993.73
2018-03-06T07:12:55.674Z,993.72
2018-03-06T07:14:04.500Z,993.75
2018-03-06T07:15:13.329Z,993.73
2018-03-06T07:16:22.160Z,993.69
2018-03-06T07:17:30.985Z,993.72
2018-03-06T07:18:39.861Z,993.7
2018-03-06T07:19:48.688Z,993.73
2018-03-06T07:20:57.517Z,993.74
2018-03-06T07:22:06.345Z,993.75
2018-03-06T07:23:15.173Z,993.74
2018-03-06T07:24:24.200Z,993.77
2018-03-06T07:25:33.031Z,993.75
2018-03-06T07:26:42.130Z,993.77
2018-03-06T07:27:51.230Z,993.76
2018-03-06T07:29:00.057Z,993.75
2018-03-06T07:30:08.884Z,993.77
2018-03-06T07:31:17.711Z,993.76
2018-03-06T07:32:26.539Z,993.79
2018-03-06T07:33:35.366Z,993.82
2018-03-06T07:34:44.194Z,993.81
2018-03-06T07:35:53.169Z,993.86
2018-03-06T07:37:01.997Z,993.83
2018-03-06T07:38:10.825Z,993.91
2018-03-06T07:39:19.651Z,993.88
2018-03-06T07:40:28.480Z,993.9
2018-03-06T07:41:37.319Z,993.88
2018-03-06T07:42:46.422Z,993.89
2018-03-06T07:43:55.249Z,993.87
2018-03-06T07:45:04.078Z,993.87
2018-03-06T07:46:12.909Z,993.91
2018-03-06T07:47:22.062Z,993.83
2018-03-06T07:48:30.890Z,993.84
2018-03-06T07:49:39.716Z,993.87
2018-03-06T07:50:48.544Z,993.81
2018-03-06T07:51:57.370Z,993.83
2018-03-06T07:53:06.197Z,993.84
2018-03-06T07:54:15.024Z,993.83
2018-03-06T07:55:24.407Z,993.82
2018-03-06T07:56:33.235Z,993.81
2018-03-06T07:57:42.059Z,993.83
2018-03-06T07:58:51.038Z,993.78
2018-03-06T07:59:59.866Z,993.77
2018-03-06T08:01:08.975Z,993.81
2018-03-06T08:02:17.802Z,993.81
2018-03-06T08:03:26.631Z,993.78
2018-03-06T08:04:35.515Z,993.78
2018-03-06T08:05:44.341Z,993.74
2018-03-06T08:06:53.444Z,993.78
2018-03-06T08:08:02.270Z,993.76
2018-03-06T08:09:11.101Z,993.74
2018-03-06T08:10:20.078Z,993.74
2018-03-06T08:11:28.908Z,993.73
2018-03-06T08:12:37.738Z,993.74
2018-03-06T08:13:46.564Z,993.69
2018-03-06T08:14:55.393Z,993.73
2018-03-06T08:16:04.596Z,993.69
2018-03-06T08:17:13.703Z,993.63
2018-03-06T08:18:22.811Z,993.68
2018-03-06T08:19:31.637Z,993.64
2018-03-06T08:20:40.472Z,993.64
2018-03-06T08:21:49.350Z,993.63
2018-03-06T08:22:58.180Z,993.65
2018-03-06T08:24:07.010Z,993.66
2018-03-06T08:25:16.112Z,993.64
2018-03-06T08:26:24.939Z,993.65
2018-03-06T08:27:34.017Z,993.61
2018-03-06T08:28:42.845Z,993.58
2018-03-06T08:29:51.675Z,993.6
2018-03-06T08:31:01.116Z,993.56
2018-03-06T08:32:10.217Z,993.61
2018-03-06T08:33:19.096Z,993.59
2018-03-06T08:34:27.925Z,993.62
2018-03-06T08:35:36.751Z,993.58
2018-03-06T08:36:45.577Z,993.64
2018-03-06T08:37:54.404Z,993.57
2018-03-06T08:39:03.583Z,993.55
2018-03-06T08:40:12.413Z,993.55
2018-03-06T08:41:21.518Z,993.56
2018-03-06T08:42:30.347Z,993.58
2018-03-06T08:43:39.175Z,993.58
2018-03-06T08:44:48.140Z,993.59
2018-03-06T08:45:56.931Z,993.55
2018-03-06T08:47:05.761Z,993.61
2018-03-06T08:48:14.588Z,993.61
2018-03-06T08:49:23.457Z,993.63
2018-03-06T08:50:32.342Z,993.6
2018-03-06T08:51:41.170Z,993.65
2018-03-06T08:52:50.001Z,993.62
2018-03-06T08:53:58.829Z,993.64
2018-03-06T08:55:07.657Z,993.64
2018-03-06T08:56:16.639Z,993.65
2018-03-06T08:57:25.467Z,993.64
2018-03-06T08:58:34.296Z,993.6
2018-03-06T08:59:43.126Z,993.63
2018-03-06T09:00:51.952Z,993.65
2018-03-06T09:02:00.883Z,993.67
2018-03-06T09:03:09.709Z,993.67
2018-03-06T09:04:18.539Z,993.65
2018-03-06T09:05:27.644Z,993.66
2018-03-06T09:06:36.473Z,993.62
2018-03-06T09:07:45.351Z,993.58
2018-03-06T09:08:54.181Z,993.63
2018-03-06T09:10:03.012Z,993.64
2018-03-06T09:11:11.841Z,993.63
2018-03-06T09:12:20.671Z,993.61
2018-03-06T09:13:29.800Z,993.6
2018-03-06T09:14:38.631Z,993.54
2018-03-06T09:15:47.462Z,993.5
2018-03-06T09:16:56.291Z,993.53
2018-03-06T09:18:05.120Z,993.5
2018-03-06T09:19:14.048Z,993.47
2018-03-06T09:20:22.877Z,993.53
2018-03-06T09:21:31.709Z,993.5
2018-03-06T09:22:40.538Z,993.51
2018-03-06T09:23:49.368Z,993.49
2018-03-06T09:24:58.298Z,993.46
2018-03-06T09:26:07.125Z,993.47
2018-03-06T09:27:15.953Z,993.46
2018-03-06T09:28:24.787Z,993.42
2018-03-06T09:29:33.616Z,993.45
2018-03-06T09:30:42.498Z,993.43
2018-03-06T09:31:51.386Z,993.4
2018-03-06T09:33:00.494Z,993.4
2018-03-06T09:34:09.324Z,993.45
2018-03-06T09:35:18.154Z,993.4
2018-03-06T09:36:27.182Z,993.39
2018-03-06T09:37:36.014Z,993.42
2018-03-06T09:38:44.845Z,993.41
2018-03-06T09:39:53.675Z,993.39
2018-03-06T09:41:02.503Z,993.41
2018-03-06T09:42:11.713Z,993.36
2018-03-06T09:43:20.541Z,993.39
2018-03-06T09:44:29.371Z,993.31
2018-03-06T09:45:38.202Z,993.3
2018-03-06T09:46:47.078Z,993.31
2018-03-06T09:47:56.212Z,993.31
2018-03-06T09:49:05.043Z,993.29
2018-03-06T09:50:13.874Z,993.3
2018-03-06T09:51:22.707Z,993.24
2018-03-06T09:52:31.536Z,993.23
2018-03-06T09:53:40.413Z,993.24
2018-03-06T09:54:49.245Z,993.2
2018-03-06T09:55:58.076Z,993.17
2018-03-06T09:57:06.906Z,993.19
2018-03-06T09:58:15.736Z,993.17
2018-03-06T09:59:24.665Z,993.12
2018-03-06T10:00:33.500Z,993.16
2018-03-06T10:01:42.330Z,993.13
2018-03-06T10:02:51.161Z,993.16
2018-03-06T10:03:59.990Z,993.14
2018-03-06T10:05:08.871Z,993.1
2018-03-06T10:06:17.699Z,993.1
2018-03-06T10:07:26.528Z,993.01
2018-03-06T10:08:35.357Z,993.01
2018-03-06T10:09:44.205Z,993.04
2018-03-06T10:10:53.218Z,993.03
2018-03-06T10:12:02.050Z,993.03
2018-03-06T10:13:10.880Z,993.03
2018-03-06T10:14:19.711Z,993.05
2018-03-06T10:15:28.541Z,993.01
2018-03-06T10:16:37.672Z,993.02
2018-03-06T10:17:46.506Z,993.05
2018-03-06T10:18:55.337Z,993.05
2018-03-06T10:20:04.170Z,993.04
2018-03-06T10:21:13.000Z,993.04
2018-03-06T10:22:22.129Z,993.07
2018-03-06T10:23:30.962Z,993.08
2018-03-06T10:24:39.797Z,993.08
2018-03-06T10:25:48.630Z,993.1
2018-03-06T10:26:57.469Z,993.13
2018-03-06T10:28:06.773Z,993.1
2018-03-06T10:29:15.554Z,993.15
2018-03-06T10:30:24.384Z,993.16
2018-03-06T10:31:33.216Z,993.19
2018-03-06T10:32:42.047Z,993.18
2018-03-06T10:33:51.028Z,993.2
2018-03-06T10:35:00.194Z,993.22
2018-03-06T10:36:09.026Z,993.18
2018-03-06T10:37:17.858Z,993.17
2018-03-06T10:38:26.689Z,993.12
2018-03-06T10:39:35.570Z,993.12
2018-03-06T10:40:44.404Z,993.12
2018-03-06T10:41:53.236Z,993.13
2018-03-06T10:43:02.069Z,993.1
2018-03-06T10:44:10.905Z,993.14
2018-03-06T10:45:19.737Z,993.11
2018-03-06T10:46:28.847Z,993.1
2018-03-06T10:47:37.682Z,993.1
2018-03-06T10:48:46.514Z,993.16
2018-03-06T10:49:55.346Z,993.19
2018-03-06T10:51:04.177Z,993.15
2018-03-06T10:52:13.010Z,993.1
2018-03-06T10:53:21.841Z,993.11
2018-03-06T10:54:30.674Z,993.05
2018-03-06T10:55:39.506Z,993.04
2018-03-06T10:56:48.716Z,993.08
2018-03-06T10:57:57.551Z,993.03
2018-03-06T10:59:06.385Z,992.99
2018-03-06T11:00:15.221Z,992.99
2018-03-06T11:01:24.056Z,993.05
2018-03-06T11:02:33.213Z,992.96
2018-03-06T11:03:42.044Z,992.96
2018-03-06T11:04:50.876Z,992.95
2018-03-06T11:05:59.708Z,992.93
2018-03-06T11:07:08.540Z,992.85
2018-03-06T11:08:17.639Z,992.86
2018-03-06T11:09:26.457Z,992.87
2018-03-06T11:10:35.292Z,992.86
2018-03-06T11:11:44.403Z,992.88
2018-03-06T11:12:53.234Z,992.86
2018-03-06T11:14:02.223Z,992.85
2018-03-06T11:15:11.052Z,992.82
2018-03-06T11:16:19.890Z,992.81
2018-03-06T11:17:28.722Z,992.84
2018-03-06T11:18:37.555Z,992.8
2018-03-06T11:19:46.394Z,992.78
2018-03-06T11:20:55.511Z,992.78
2018-03-06T11:22:04.346Z,992.82
2018-03-06T11:23:13.179Z,992.8
2018-03-06T11:24:22.010Z,992.8
2018-03-06T11:25:31.417Z,992.83
2018-03-06T11:26:40.253Z,992.81
2018-03-06T11:27:49.359Z,992.78
2018-03-06T11:28:58.193Z,992.81
2018-03-06T11:30:07.027Z,992.77
2018-03-06T11:31:15.861Z,992.83
2018-03-06T11:32:24.699Z,992.8
2018-03-06T11:33:33.531Z,992.77
2018-03-06T11:34:42.365Z,992.77
2018-03-06T11:35:51.201Z,992.74
2018-03-06T11:37:00.135Z,992.72
2018-03-06T11:38:08.965Z,992.7
2018-03-06T11:39:18.076Z,992.74
2018-03-06T11:40:27.186Z,992.73
2018-03-06T11:41:36.023Z,992.65
2018-03-06T11:42:45.138Z,992.64
2018-03-06T11:43:54.253Z,992.66
2018-03-06T11:45:03.085Z,992.64
2018-03-06T11:46:11.920Z,992.62
2018-03-06T11:47:20.753Z,992.57
2018-03-06T11:48:29.640Z,992.55
2018-03-06T11:49:38.745Z,992.59
2018-03-06T11:50:47.581Z,992.52
2018-03-06T11:51:56.413Z,992.59
2018-03-06T11:53:05.251Z,992.56
2018-03-06T11:54:14.130Z,992.57
2018-03-06T11:55:22.965Z,992.57
2018-03-06T11:56:31.796Z,992.55
2018-03-06T11:57:40.630Z,992.53
2018-03-06T11:58:49.468Z,992.52
2018-03-06T11:59:58.551Z,992.54
2018-03-06T12:01:07.385Z,992.49
2018-03-06T12:02:16.218Z,992.54
2018-03-06T12:03:25.053Z,992.52
2018-03-06T12:04:33.888Z,992.52
2018-03-06T12:05:42.972Z,992.54
2018-03-06T12:06:51.806Z,992.53
2018-03-06T12:08:00.641Z,992.51
2018-03-06T12:09:09.475Z,992.52
2018-03-06T12:10:18.310Z,992.56
2018-03-06T12:11:27.243Z,992.52
2018-03-06T12:12:36.078Z,992.54
2018-03-06T12:13:45.192Z,992.54
2018-03-06T12:14:54.029Z,992.51
2018-03-06T12:16:03.140Z,992.5
2018-03-06T12:17:12.025Z,992.48
2018-03-06T12:18:20.860Z,992.49
2018-03-06T12:19:29.698Z,992.46
2018-03-06T12:20:38.532Z,992.48
2018-03-06T12:21:47.367Z,992.47
2018-03-06T12:22:56.457Z,992.49
2018-03-06T12:24:05.305Z,992.45
2018-03-06T12:25:14.142Z,992.46
2018-03-06T12:26:22.980Z,992.45
2018-03-06T12:27:31.818Z,992.47
2018-03-06T12:28:40.804Z,992.47
2018-03-06T12:29:49.644Z,992.48
2018-03-06T12:30:58.478Z,992.47
2018-03-06T12:32:07.318Z,992.44
2018-03-06T12:33:16.155Z,992.42
2018-03-06T12:34:25.318Z,992.43
2018-03-06T12:35:34.154Z,992.48
2018-03-06T12:36:42.992Z,992.44
2018-03-06T12:37:51.829Z,992.43
2018-03-06T12:39:00.667Z,992.42
2018-03-06T12:40:09.657Z,992.43
2018-03-06T12:41:18.498Z,992.44
2018-03-06T12:42:27.337Z,992.41
2018-03-06T12:43:36.181Z,992.42
2018-03-06T12:44:45.021Z,992.4
2018-03-06T12:45:54.112Z,992.41
2018-03-06T12:47:02.950Z,992.41
2018-03-06T12:48:11.787Z,992.4
2018-03-06T12:49:20.649Z,992.38
2018-03-06T12:50:29.463Z,992.4
2018-03-06T12:51:38.451Z,992.38
2018-03-06T12:52:47.564Z,992.38
2018-03-06T12:53:56.402Z,992.39
2018-03-06T12:55:05.244Z,992.41
2018-03-06T12:56:14.084Z,992.4
2018-03-06T12:57:23.174Z,992.4
2018-03-06T12:58:32.293Z,992.37
2018-03-06T12:59:41.133Z,992.38
2018-03-06T13:00:50.248Z,992.37
2018-03-06T13:01:59.091Z,992.35
2018-03-06T13:03:08.202Z,992.41
2018-03-06T13:04:17.041Z,992.37
2018-03-06T13:05:26.153Z,992.39
2018-03-06T13:06:34.992Z,992.39
2018-03-06T13:07:43.831Z,992.37
2018-03-06T13:08:52.670Z,992.41
2018-03-06T13:10:01.510Z,992.41
2018-03-06T13:11:10.623Z,992.41
2018-03-06T13:12:19.464Z,992.4
2018-03-06T13:13:28.302Z,992.39
2018-03-06T13:14:37.292Z,992.36
2018-03-06T13:15:46.134Z,992.39
2018-03-06T13:16:54.978Z,992.37
2018-03-06T13:18:03.816Z,992.36
2018-03-06T13:19:12.655Z,992.34
2018-03-06T13:20:21.594Z,992.37
2018-03-06T13:21:30.433Z,992.36
2018-03-06T13:22:39.273Z,992.36
2018-03-06T13:23:48.113Z,992.37
2018-03-06T13:24:56.950Z,992.37
2018-03-06T13:26:05.789Z,992.33
2018-03-06T13:27:14.627Z,992.34
2018-03-06T13:28:23.749Z,992.38
2018-03-06T13:29:32.597Z,992.37
2018-03-06T13:30:41.431Z,992.37
2018-03-06T13:31:50.421Z,992.35
2018-03-06T13:32:59.270Z,992.34
2018-03-06T13:34:08.113Z,992.35
2018-03-06T13:35:16.955Z,992.33
2018-03-06T13:36:25.793Z,992.28
2018-03-06T13:37:34.731Z,992.29
2018-03-06T13:38:43.621Z,992.24
2018-03-06T13:39:52.450Z,992.25
2018-03-06T13:41:01.254Z,992.29
2018-03-06T13:42:10.369Z,992.29
2018-03-06T13:43:19.208Z,992.27
2018-03-06T13:44:28.048Z,992.3
2018-03-06T13:45:36.886Z,992.27
2018-03-06T13:46:45.725Z,992.3
2018-03-06T13:47:54.563Z,992.27
2018-03-06T13:49:03.690Z,992.23
2018-03-06T13:50:12.527Z,992.21
2018-03-06T13:51:21.371Z,992.25
2018-03-06T13:52:30.215Z,992.28
2018-03-06T13:53:39.053Z,992.26
2018-03-06T13:54:47.945Z,992.25
2018-03-06T13:55:56.785Z,992.23
2018-03-06T13:57:05.625Z,992.26
2018-03-06T13:58:14.665Z,992.25
2018-03-06T13:59:23.507Z,992.26
2018-03-06T14:00:32.346Z,992.27
2018-03-06T14:01:41.187Z,992.29
2018-03-06T14:02:50.028Z,992.28
2018-03-06T14:03:58.865Z,992.31
2018-03-06T14:05:07.707Z,992.28
2018-03-06T14:06:16.549Z,992.27
2018-03-06T14:07:25.390Z,992.26
2018-03-06T14:08:34.230Z,992.23
2018-03-06T14:09:43.072Z,992.25
2018-03-06T14:10:51.915Z,992.28
2018-03-06T14:12:00.807Z,992.28
2018-03-06T14:13:09.650Z,992.2
2018-03-06T14:14:18.501Z,992.26
2018-03-06T14:15:27.363Z,992.25
2018-03-06T14:16:36.195Z,992.24
2018-03-06T14:17:45.186Z,992.2
2018-03-06T14:18:54.032Z,992.22
2018-03-06T14:20:02.876Z,992.21
2018-03-06T14:21:11.995Z,992.19
2018-03-06T14:22:20.839Z,992.19
2018-03-06T14:23:29.959Z,992.2